createdAt,value
2018-11-12T00:01:11.466Z,13.60
2018-11-12T00:03:39.702Z,13.70
2018-11-12T00:06:07.975Z,13.40
2018-11-12T00:08:36.242Z,13.10
2018-11-12T00:11:04.519Z,13.10
2018-11-12T00:13:32.777Z,13.00
2018-11-12T00:16:00.987Z,13.00
2018-11-12T00:18:29.195Z,13.00
2018-11-12T00:20:57.398Z,13.00
2018-11-12T00:23:25.702Z,13.10
2018-11-12T00:25:53.968Z,13.00
2018-11-12T00:28:22.197Z,13.00
2018-11-12T00:30:50.402Z,13.20
2018-11-12T00:33:18.678Z,13.30
2018-11-12T00:35:46.972Z,13.60
2018-11-12T00:38:15.233Z,13.70
2018-11-12T00:40:43.505Z,13.80
2018-11-12T00:43:11.780Z,13.80
2018-11-12T00:45:40.047Z,13.70
2018-11-12T00:48:08.378Z,13.80
2018-11-12T00:50:36.609Z,13.70
2018-11-12T00:53:04.871Z,13.80
2018-11-12T00:55:33.154Z,13.80
2018-11-12T00:58:01.373Z,13.90
2018-11-12T01:00:29.699Z,13.90
2018-11-12T01:02:57.912Z,14.00
2018-11-12T01:05:26.177Z,14.10
2018-11-12T01:07:54.453Z,14.30
2018-11-12T01:10:22.735Z,14.40
2018-11-12T01:12:51.003Z,14.40
2018-11-12T01:15:20.155Z,14.50
2018-11-12T01:17:48.394Z,14.50
2018-11-12T01:20:17.902Z,14.60
2018-11-12T01:22:46.149Z,14.60
2018-11-12T01:25:15.111Z,14.60
2018-11-12T01:27:44.094Z,14.70
2018-11-12T01:30:14.042Z,14.70
2018-11-12T01:32:42.701Z,14.70
2018-11-12T01:35:12.376Z,14.70
2018-11-12T01:37:40.649Z,14.60
2018-11-12T01:40:10.587Z,14.70
2018-11-12T01:42:38.839Z,14.80
2018-11-12T01:45:08.899Z,14.80
2018-11-12T01:47:37.179Z,14.80
2018-11-12T01:50:08.835Z,14.80
2018-11-12T01:52:37.058Z,14.80
2018-11-12T01:55:06.163Z,14.80
2018-11-12T01:57:34.386Z,14.90
2018-11-12T02:00:02.674Z,14.90
2018-11-12T02:02:30.951Z,14.90
2018-11-12T02:04:59.212Z,14.90
2018-11-12T02:07:27.404Z,14.90
2018-11-12T02:09:55.608Z,14.90
2018-11-12T02:12:23.858Z,15.00
2018-11-12T02:14:52.157Z,15.00
2018-11-12T02:17:20.439Z,15.00
2018-11-12T02:19:48.671Z,15.00
2018-11-12T02:22:16.865Z,15.00
2018-11-12T02:24:45.145Z,15.10
2018-11-12T02:27:13.398Z,15.10
2018-11-12T02:29:41.621Z,15.10
2018-11-12T02:32:09.877Z,15.10
2018-11-12T02:34:38.108Z,15.20
2018-11-12T02:37:06.343Z,15.20
2018-11-12T02:39:34.622Z,15.20
2018-11-12T02:42:02.864Z,15.20
2018-11-12T02:44:31.141Z,15.20
2018-11-12T02:46:59.373Z,15.20
2018-11-12T02:49:27.613Z,15.40
2018-11-12T02:51:55.890Z,15.30
2018-11-12T02:54:24.142Z,15.40
2018-11-12T02:56:52.446Z,15.40
2018-11-12T02:59:20.694Z,15.40
2018-11-12T03:01:48.965Z,15.40
2018-11-12T03:04:17.189Z,15.40
2018-11-12T03:06:45.435Z,15.30
2018-11-12T03:09:14.208Z,15.50
2018-11-12T03:11:42.871Z,15.50
2018-11-12T03:14:11.090Z,15.50
2018-11-12T03:16:39.624Z,15.50
2018-11-12T03:19:07.822Z,15.40
2018-11-12T03:21:36.128Z,15.40
2018-11-12T03:24:04.710Z,15.40
2018-11-12T03:26:32.917Z,15.40
2018-11-12T03:29:01.144Z,15.40
2018-11-12T03:31:29.465Z,15.40
2018-11-12T03:33:57.717Z,15.50
2018-11-12T03:36:25.946Z,15.50
2018-11-12T03:38:54.173Z,15.60
2018-11-12T03:41:22.403Z,15.50
2018-11-12T03:43:50.663Z,15.60
2018-11-12T03:46:18.910Z,15.50
2018-11-12T03:48:47.113Z,15.50
2018-11-12T03:51:15.327Z,15.50
2018-11-12T03:53:43.587Z,15.50
2018-11-12T03:56:11.884Z,15.50
2018-11-12T03:58:40.173Z,15.50
2018-11-12T04:01:08.420Z,15.60
2018-11-12T04:03:36.715Z,15.50
2018-11-12T04:06:05.006Z,15.50
2018-11-12T04:08:33.259Z,15.60
2018-11-12T04:11:01.548Z,15.60
2018-11-12T04:13:29.794Z,15.70
2018-11-12T04:15:58.095Z,15.70
2018-11-12T04:18:26.332Z,15.60
2018-11-12T04:20:54.602Z,15.60
2018-11-12T04:23:22.825Z,15.60
2018-11-12T04:25:51.058Z,15.50
2018-11-12T04:28:19.256Z,15.30
2018-11-12T04:30:47.458Z,15.20
2018-11-12T04:33:15.678Z,15.20
2018-11-12T04:35:43.979Z,15.10
2018-11-12T04:38:12.202Z,15.10
2018-11-12T04:40:40.405Z,15.10
2018-11-12T04:43:08.678Z,15.00
2018-11-12T04:45:36.987Z,15.00
2018-11-12T04:48:05.295Z,14.90
2018-11-12T04:50:33.509Z,14.80
2018-11-12T04:53:01.797Z,14.60
2018-11-12T04:55:30.063Z,14.70
2018-11-12T04:57:58.251Z,14.60
2018-11-12T05:00:27.850Z,14.60
2018-11-12T05:02:56.117Z,14.50
2018-11-12T05:05:25.726Z,14.50
2018-11-12T05:07:54.001Z,14.50
2018-11-12T05:10:23.613Z,14.40
2018-11-12T05:12:53.333Z,14.30
2018-11-12T05:15:22.435Z,14.20
2018-11-12T05:17:50.629Z,14.20
2018-11-12T05:20:21.438Z,14.00
2018-11-12T05:22:49.644Z,14.00
2018-11-12T05:25:17.911Z,14.00
2018-11-12T05:27:46.127Z,14.00
2018-11-12T05:30:16.582Z,13.90
2018-11-12T05:32:44.785Z,13.80
2018-11-12T05:35:14.267Z,13.80
2018-11-12T05:37:42.706Z,13.80
2018-11-12T05:40:15.395Z,13.60
2018-11-12T05:42:43.898Z,13.50
2018-11-12T05:45:12.997Z,13.50
2018-11-12T05:47:41.192Z,13.40
2018-11-12T05:50:18.356Z,13.50
2018-11-12T05:52:48.004Z,13.60
2018-11-12T05:55:17.573Z,13.70
2018-11-12T05:57:46.377Z,13.80
2018-11-12T06:00:16.724Z,14.00
2018-11-12T06:02:45.031Z,13.90
2018-11-12T06:05:14.290Z,13.90
2018-11-12T06:07:42.966Z,13.50
2018-11-12T06:10:13.942Z,13.40
2018-11-12T06:12:42.379Z,13.50
2018-11-12T06:15:11.275Z,13.70
2018-11-12T06:17:40.305Z,13.90
2018-11-12T06:20:13.054Z,14.00
2018-11-12T06:22:41.292Z,14.10
2018-11-12T06:25:10.746Z,14.30
2018-11-12T06:27:39.016Z,14.50
2018-11-12T06:30:10.518Z,14.50
2018-11-12T06:32:38.762Z,14.50
2018-11-12T06:35:08.014Z,14.40
2018-11-12T06:37:36.526Z,14.50
2018-11-12T06:40:05.948Z,14.60
2018-11-12T06:42:34.381Z,14.70
2018-11-12T06:45:02.569Z,14.80
2018-11-12T06:47:30.967Z,15.00
2018-11-12T06:49:59.208Z,14.90
2018-11-12T06:52:27.451Z,14.90
2018-11-12T06:54:55.697Z,14.90
2018-11-12T06:57:23.985Z,15.00
2018-11-12T06:59:52.213Z,15.10
2018-11-12T07:02:20.454Z,15.20
2018-11-12T07:04:48.672Z,15.20
2018-11-12T07:07:16.886Z,15.30
2018-11-12T07:09:45.164Z,15.40
2018-11-12T07:12:13.409Z,15.40
2018-11-12T07:14:41.661Z,15.50
2018-11-12T07:17:10.005Z,15.60
2018-11-12T07:19:38.224Z,15.70
2018-11-12T07:22:06.426Z,15.70
2018-11-12T07:24:34.903Z,15.80
2018-11-12T07:27:03.168Z,15.80
2018-11-12T07:29:31.393Z,15.90
2018-11-12T07:31:59.618Z,15.80
2018-11-12T07:34:27.805Z,15.90
2018-11-12T07:36:56.089Z,16.00
2018-11-12T07:39:24.325Z,16.10
2018-11-12T07:41:52.581Z,16.20
2018-11-12T07:44:20.804Z,16.20
2018-11-12T07:46:49.088Z,16.30
2018-11-12T07:49:17.459Z,16.30
2018-11-12T07:51:45.736Z,16.40
2018-11-12T07:54:14.002Z,16.50
2018-11-12T07:56:42.209Z,16.60
2018-11-12T07:59:10.456Z,16.60
2018-11-12T08:01:38.756Z,16.60
2018-11-12T08:04:07.005Z,16.70
2018-11-12T08:06:35.232Z,16.60
2018-11-12T08:09:04.144Z,16.70
2018-11-12T08:11:32.425Z,16.70
2018-11-12T08:14:00.651Z,16.70
2018-11-12T08:16:28.916Z,16.80
2018-11-12T08:18:57.164Z,16.80
2018-11-12T08:21:25.376Z,16.90
2018-11-12T08:23:53.680Z,16.90
2018-11-12T08:26:21.898Z,17.00
2018-11-12T08:28:50.174Z,17.00
2018-11-12T08:31:18.400Z,17.00
2018-11-12T08:33:46.642Z,17.00
2018-11-12T08:36:14.869Z,17.00
2018-11-12T08:38:43.074Z,17.00
2018-11-12T08:41:11.424Z,17.10
2018-11-12T08:43:39.593Z,17.20
2018-11-12T08:46:07.863Z,17.20
2018-11-12T08:48:36.033Z,17.20
2018-11-12T08:51:04.294Z,17.20
2018-11-12T08:53:33.081Z,17.20
2018-11-12T08:56:01.325Z,17.20
2018-11-12T08:58:29.584Z,17.10
2018-11-12T09:00:57.935Z,17.10
2018-11-12T09:03:26.080Z,17.10
2018-11-12T09:05:54.296Z,17.10
2018-11-12T09:08:22.482Z,17.10
2018-11-12T09:10:50.705Z,17.10
2018-11-12T09:13:18.924Z,17.10
2018-11-12T09:15:47.257Z,17.20
2018-11-12T09:18:15.386Z,17.10
2018-11-12T09:20:43.632Z,17.10
2018-11-12T09:23:11.842Z,17.20
2018-11-12T09:25:40.068Z,17.10
2018-11-12T09:28:08.490Z,17.20
2018-11-12T09:30:36.504Z,17.20
2018-11-12T09:33:04.847Z,17.20
2018-11-12T09:35:33.106Z,17.20
2018-11-12T09:38:02.517Z,17.20
2018-11-12T09:40:32.626Z,17.20
2018-11-12T09:43:00.850Z,17.20
2018-11-12T09:45:29.130Z,17.20
2018-11-12T09:47:57.478Z,17.20
2018-11-12T09:50:26.568Z,17.20
2018-11-12T09:52:55.885Z,17.30
2018-11-12T09:55:25.283Z,17.20
2018-11-12T09:57:55.300Z,17.20
2018-11-12T10:00:23.773Z,17.20
2018-11-12T10:02:52.811Z,17.30
2018-11-12T10:05:21.328Z,17.20
2018-11-12T10:07:54.591Z,17.30
2018-11-12T10:10:31.354Z,17.30
2018-11-12T10:12:58.425Z,17.40
2018-11-12T10:15:27.881Z,17.30
2018-11-12T10:17:55.823Z,17.30
2018-11-12T10:20:21.507Z,17.30
2018-11-12T10:22:49.748Z,17.30
2018-11-12T10:25:18.946Z,17.40
2018-11-12T10:27:47.223Z,17.40
2018-11-12T10:30:15.484Z,17.40
2018-11-12T10:32:43.690Z,17.40
2018-11-12T10:35:11.929Z,17.40
2018-11-12T10:37:40.954Z,17.30
2018-11-12T10:40:11.971Z,17.40
2018-11-12T10:42:40.345Z,17.40
2018-11-12T10:45:08.621Z,17.40
2018-11-12T10:47:36.821Z,17.30
2018-11-12T10:50:05.514Z,17.30
2018-11-12T10:52:33.793Z,17.40
2018-11-12T10:55:05.630Z,17.30
2018-11-12T10:57:30.353Z,17.40
2018-11-12T10:59:58.582Z,17.40
2018-11-12T11:02:31.038Z,17.50
2018-11-12T11:05:00.273Z,17.50
2018-11-12T11:07:28.564Z,17.70
2018-11-12T11:09:57.231Z,17.60
2018-11-12T11:12:25.420Z,17.70
2018-11-12T11:14:53.769Z,17.70
2018-11-12T11:17:22.384Z,17.70
2018-11-12T11:19:50.657Z,17.70
2018-11-12T11:22:18.830Z,17.70
2018-11-12T11:24:47.110Z,17.70
2018-11-12T11:27:15.369Z,17.70
2018-11-12T11:29:43.617Z,17.70
2018-11-12T11:32:12.706Z,17.60
2018-11-12T11:34:40.933Z,17.60
2018-11-12T11:37:09.122Z,17.60
2018-11-12T11:39:37.376Z,17.70
2018-11-12T11:42:05.921Z,17.80
2018-11-12T11:44:34.135Z,18.00
2018-11-12T11:47:02.416Z,18.00
2018-11-12T11:49:30.685Z,18.10
2018-11-12T11:51:58.937Z,18.10
2018-11-12T11:54:27.313Z,18.10
2018-11-12T11:56:55.771Z,18.20
2018-11-12T11:59:24.392Z,18.70
2018-11-12T12:01:52.771Z,18.60
2018-11-12T12:04:21.020Z,18.40
2018-11-12T12:06:49.274Z,18.30
2018-11-12T12:09:17.563Z,18.20
2018-11-12T12:11:45.747Z,18.20
2018-11-12T12:14:13.966Z,18.20
2018-11-12T12:16:42.245Z,18.40
2018-11-12T12:19:10.584Z,19.10
2018-11-12T12:21:38.757Z,19.70
2018-11-12T12:24:07.053Z,19.70
2018-11-12T12:26:35.239Z,20.00
2018-11-12T12:29:03.503Z,20.40
2018-11-12T12:31:31.711Z,20.50
2018-11-12T12:34:00.002Z,20.60
2018-11-12T12:36:28.253Z,20.20
2018-11-12T12:38:56.518Z,20.30
2018-11-12T12:41:24.780Z,20.40
2018-11-12T12:43:53.028Z,20.50
2018-11-12T12:46:21.238Z,20.80
2018-11-12T12:48:49.512Z,21.00
2018-11-12T12:51:17.836Z,21.10
2018-11-12T12:53:46.056Z,21.20
2018-11-12T12:56:14.486Z,21.20
2018-11-12T12:58:42.660Z,21.30
2018-11-12T13:01:10.909Z,21.50
2018-11-12T13:03:39.132Z,21.60
2018-11-12T13:06:07.336Z,21.50
2018-11-12T13:08:35.533Z,21.40
2018-11-12T13:11:03.770Z,21.30
2018-11-12T13:13:31.968Z,21.10
2018-11-12T13:16:00.237Z,20.80
2018-11-12T13:18:28.498Z,20.70
2018-11-12T13:20:56.745Z,20.80
2018-11-12T13:23:24.968Z,20.70
2018-11-12T13:25:53.214Z,20.70
2018-11-12T13:28:21.438Z,20.60
2018-11-12T13:30:49.688Z,20.60
2018-11-12T13:33:17.946Z,20.70
2018-11-12T13:35:46.245Z,20.80
2018-11-12T13:38:14.421Z,20.50
2018-11-12T13:40:42.671Z,20.30
2018-11-12T13:43:10.874Z,20.40
2018-11-12T13:45:39.162Z,20.50
2018-11-12T13:48:07.386Z,20.40
2018-11-12T13:50:35.633Z,20.30
2018-11-12T13:53:04.249Z,20.30
2018-11-12T13:55:32.577Z,20.20
2018-11-12T13:58:00.806Z,20.10
2018-11-12T14:00:30.073Z,19.80
2018-11-12T14:02:58.747Z,19.60
2018-11-12T14:05:28.376Z,19.50
2018-11-12T14:07:56.632Z,19.60
2018-11-12T14:10:26.658Z,19.70
2018-11-12T14:12:55.828Z,19.90
2018-11-12T14:15:24.431Z,20.00
2018-11-12T14:17:53.259Z,20.10
2018-11-12T14:20:22.133Z,20.10
2018-11-12T14:22:50.793Z,20.10
2018-11-12T14:25:20.369Z,20.10
2018-11-12T14:27:50.384Z,19.90
2018-11-12T14:30:20.323Z,19.90
2018-11-12T14:32:48.718Z,19.80
2018-11-12T14:35:17.202Z,19.80
2018-11-12T14:37:46.251Z,19.70
2018-11-12T14:40:16.688Z,19.70
2018-11-12T14:42:45.170Z,19.70
2018-11-12T14:45:15.880Z,19.70
2018-11-12T14:47:44.814Z,19.60
2018-11-12T14:50:13.258Z,19.50
2018-11-12T14:52:41.988Z,19.40
2018-11-12T14:55:12.272Z,19.40
2018-11-12T14:57:40.794Z,19.20
2018-11-12T15:00:13.368Z,19.10
2018-11-12T15:02:41.867Z,19.00
2018-11-12T15:05:10.228Z,19.10
2018-11-12T15:07:38.719Z,19.00
2018-11-12T15:10:09.112Z,19.00
2018-11-12T15:12:37.589Z,19.00
2018-11-12T15:15:07.273Z,19.00
2018-11-12T15:17:35.617Z,18.80
2018-11-12T15:20:04.463Z,18.70
2018-11-12T15:22:32.797Z,18.70
2018-11-12T15:25:01.100Z,18.60
2018-11-12T15:27:29.533Z,18.50
2018-11-12T15:29:57.914Z,18.50
2018-11-12T15:32:26.284Z,18.50
2018-11-12T15:34:54.711Z,18.40
2018-11-12T15:37:23.064Z,18.40
2018-11-12T15:39:51.497Z,18.40
2018-11-12T15:42:19.914Z,18.40
2018-11-12T15:44:48.484Z,18.40
2018-11-12T15:47:16.863Z,18.40
2018-11-12T15:49:45.350Z,18.40
2018-11-12T15:52:13.719Z,18.40
2018-11-12T15:54:42.221Z,18.40
2018-11-12T15:57:10.716Z,18.40
2018-11-12T15:59:39.170Z,18.40
2018-11-12T16:02:07.513Z,18.30
2018-11-12T16:04:35.867Z,18.40
2018-11-12T16:07:04.297Z,18.50
2018-11-12T16:09:32.703Z,18.50
2018-11-12T16:12:01.214Z,18.30
2018-11-12T16:14:29.564Z,17.80
2018-11-12T16:16:57.944Z,17.30
2018-11-12T16:19:26.350Z,16.60
2018-11-12T16:21:54.850Z,16.20
2018-11-12T16:24:23.189Z,16.00
2018-11-12T16:26:51.596Z,15.90
2018-11-12T16:29:20.393Z,16.00
2018-11-12T16:31:48.813Z,15.60
2018-11-12T16:34:17.389Z,15.60
2018-11-12T16:36:46.042Z,15.60
2018-11-12T16:39:14.469Z,15.40
2018-11-12T16:41:43.012Z,15.20
2018-11-12T16:44:11.404Z,15.10
2018-11-12T16:46:39.799Z,15.20
2018-11-12T16:49:08.191Z,15.10
2018-11-12T16:51:37.025Z,15.10
2018-11-12T16:54:05.661Z,15.10
2018-11-12T16:56:34.204Z,15.10
2018-11-12T16:59:02.674Z,15.20
2018-11-12T17:01:31.196Z,15.20
2018-11-12T17:03:59.467Z,15.20
2018-11-12T17:06:27.811Z,15.20
2018-11-12T17:08:56.277Z,15.20
2018-11-12T17:11:24.799Z,15.20
2018-11-12T17:13:53.260Z,15.10
2018-11-12T17:16:21.638Z,15.10
2018-11-12T17:18:50.143Z,15.20
2018-11-12T17:21:18.423Z,15.20
2018-11-12T17:23:46.781Z,15.10
2018-11-12T17:26:15.110Z,15.20
2018-11-12T17:28:43.508Z,15.20
2018-11-12T17:31:12.552Z,15.20
2018-11-12T17:33:40.935Z,15.20
2018-11-12T17:36:09.315Z,15.20
2018-11-12T17:38:37.771Z,15.20
2018-11-12T17:41:06.378Z,15.20
2018-11-12T17:43:34.774Z,15.20
2018-11-12T17:46:03.205Z,15.20
2018-11-12T17:48:31.642Z,15.10
2018-11-12T17:50:59.997Z,15.10
2018-11-12T17:53:28.377Z,15.10
2018-11-12T17:55:56.841Z,15.10
2018-11-12T17:58:25.379Z,15.00
2018-11-12T18:00:54.311Z,15.00
2018-11-12T18:03:22.621Z,14.90
2018-11-12T18:05:50.942Z,14.90
2018-11-12T18:08:19.369Z,14.90
2018-11-12T18:10:47.696Z,14.90
2018-11-12T18:13:16.019Z,14.90
2018-11-12T18:15:44.466Z,14.90
2018-11-12T18:18:12.847Z,14.90
2018-11-12T18:20:41.179Z,14.90
2018-11-12T18:23:09.589Z,14.90
2018-11-12T18:25:38.187Z,14.90
2018-11-12T18:28:06.507Z,14.90
2018-11-12T18:30:35.134Z,14.90
2018-11-12T18:33:04.203Z,14.90
2018-11-12T18:35:33.416Z,14.80
2018-11-12T18:38:02.881Z,14.60
2018-11-12T18:40:31.165Z,14.60
2018-11-12T18:43:00.295Z,14.50
2018-11-12T18:45:29.036Z,14.30
2018-11-12T18:48:00.303Z,14.40
2018-11-12T18:50:29.689Z,14.50
2018-11-12T18:52:58.045Z,14.40
2018-11-12T18:55:26.361Z,14.60
2018-11-12T18:57:55.959Z,14.60
2018-11-12T19:00:25.343Z,14.70
2018-11-12T19:02:54.214Z,14.60
2018-11-12T19:05:23.955Z,14.60
2018-11-12T19:07:53.504Z,14.60
2018-11-12T19:10:25.334Z,14.60
2018-11-12T19:12:54.106Z,14.60
2018-11-12T19:15:24.098Z,14.60
2018-11-12T19:17:55.673Z,14.70
2018-11-12T19:20:24.228Z,14.70
2018-11-12T19:22:53.022Z,14.70
2018-11-12T19:25:21.404Z,14.60
2018-11-12T19:27:49.767Z,14.70
2018-11-12T19:30:20.947Z,14.70
2018-11-12T19:32:49.286Z,14.70
2018-11-12T19:35:19.197Z,14.60
2018-11-12T19:37:47.827Z,14.60
2018-11-12T19:40:17.873Z,14.60
2018-11-12T19:42:47.852Z,14.60
2018-11-12T19:45:16.441Z,14.60
2018-11-12T19:47:45.638Z,14.60
2018-11-12T19:50:16.353Z,14.70
2018-11-12T19:52:45.898Z,14.70
2018-11-12T19:55:14.577Z,14.70
2018-11-12T19:57:43.277Z,14.70
2018-11-12T20:00:13.182Z,14.70
2018-11-12T20:02:42.369Z,14.60
2018-11-12T20:05:11.099Z,14.70
2018-11-12T20:07:40.003Z,14.70
2018-11-12T20:10:12.991Z,14.70
2018-11-12T20:12:41.536Z,14.70
2018-11-12T20:15:10.875Z,14.70
2018-11-12T20:17:39.688Z,14.70
2018-11-12T20:20:10.390Z,14.70
2018-11-12T20:22:38.917Z,14.70
2018-11-12T20:25:08.090Z,14.70
2018-11-12T20:27:36.553Z,14.70
2018-11-12T20:30:06.413Z,14.60
2018-11-12T20:32:34.891Z,14.50
2018-11-12T20:35:03.333Z,14.60
2018-11-12T20:37:31.975Z,14.60
2018-11-12T20:40:00.538Z,14.60
2018-11-12T20:42:29.091Z,14.60
2018-11-12T20:44:57.784Z,14.70
2018-11-12T20:47:26.238Z,14.60
2018-11-12T20:49:54.751Z,14.60
2018-11-12T20:52:23.406Z,14.60
2018-11-12T20:54:51.968Z,14.60
2018-11-12T20:57:20.448Z,14.60
2018-11-12T20:59:48.949Z,14.60
2018-11-12T21:02:17.290Z,14.60
2018-11-12T21:04:46.761Z,14.60
2018-11-12T21:07:15.110Z,14.50
2018-11-12T21:09:43.512Z,14.50
2018-11-12T21:12:11.844Z,14.50
2018-11-12T21:14:40.217Z,14.50
2018-11-12T21:17:08.825Z,14.50
2018-11-12T21:19:37.339Z,14.50
2018-11-12T21:22:08.221Z,14.40
2018-11-12T21:24:36.704Z,14.40
2018-11-12T21:27:05.690Z,14.30
2018-11-12T21:29:34.020Z,14.30
2018-11-12T21:32:02.449Z,14.40
2018-11-12T21:34:30.878Z,14.40
2018-11-12T21:36:59.306Z,14.40
2018-11-12T21:39:27.623Z,14.30
2018-11-12T21:41:56.054Z,14.30
2018-11-12T21:44:24.495Z,14.30
2018-11-12T21:46:52.913Z,14.30
2018-11-12T21:49:21.468Z,14.30
2018-11-12T21:51:49.919Z,14.20
2018-11-12T21:54:18.322Z,14.20
2018-11-12T21:56:46.637Z,14.20
2018-11-12T21:59:15.121Z,14.10
2018-11-12T22:01:43.699Z,14.10
2018-11-12T22:04:12.199Z,14.00
2018-11-12T22:06:40.599Z,14.00
2018-11-12T22:09:10.373Z,13.90
2018-11-12T22:11:39.462Z,13.90
2018-11-12T22:14:08.350Z,13.80
2018-11-12T22:16:36.940Z,13.80
2018-11-12T22:19:05.735Z,13.70
2018-11-12T22:21:34.206Z,13.60
2018-11-12T22:24:02.651Z,13.50
2018-11-12T22:26:31.044Z,13.40
2018-11-12T22:28:59.792Z,13.20
2018-11-12T22:31:28.230Z,13.30
2018-11-12T22:33:56.742Z,13.40
2018-11-12T22:36:25.177Z,13.30
2018-11-12T22:38:53.567Z,13.00
2018-11-12T22:41:22.064Z,12.80
2018-11-12T22:43:50.416Z,12.70
2018-11-12T22:46:18.784Z,12.80
2018-11-12T22:48:47.137Z,12.90
2018-11-12T22:51:15.514Z,12.70
2018-11-12T22:53:43.898Z,12.60
2018-11-12T22:56:12.166Z,12.50
2018-11-12T22:58:40.497Z,12.70
2018-11-12T23:01:08.848Z,12.70
2018-11-12T23:03:37.053Z,12.70
2018-11-12T23:06:10.660Z,12.80
2018-11-12T23:08:39.407Z,12.70
2018-11-12T23:11:07.663Z,12.70
2018-11-12T23:13:35.856Z,12.70
2018-11-12T23:16:04.069Z,12.80
2018-11-12T23:18:32.333Z,12.70
2018-11-12T23:21:00.527Z,12.70
2018-11-12T23:23:28.749Z,12.70
2018-11-12T23:25:56.962Z,12.70
2018-11-12T23:28:25.199Z,12.70
2018-11-12T23:30:53.397Z,12.70
2018-11-12T23:33:21.616Z,12.70
2018-11-12T23:35:49.892Z,12.60
2018-11-12T23:38:18.093Z,12.60
2018-11-12T23:40:46.309Z,12.60
2018-11-12T23:43:14.502Z,12.50
2018-11-12T23:45:42.693Z,12.60
2018-11-12T23:48:10.949Z,12.60
2018-11-12T23:50:39.175Z,12.50
2018-11-12T23:53:07.348Z,12.50
2018-11-12T23:55:35.551Z,12.50
2018-11-12T23:58:03.903Z,12.50
